sensor_id;sensor_type;location;lat;lon;timestamp;temperature;humidity
5492;DHT22;2768;53.540;10.224;2023-03-15T00:00:31;2.80;99.90
5492;DHT22;2768;53.540;10.224;2023-03-15T00:06:26;2.80;99.90
5492;DHT22;2768;53.540;10.224;2023-03-15T00:12:19;2.60;99.90
5492;DHT22;2768;53.540;10.224;2023-03-15T00:18:14;2.50;99.90
5492;DHT22;2768;53.540;10.224;2023-03-15T00:24:09;2.70;1.00
5492;DHT22;2768;53.540;10.224;2023-03-15T00:30:03;2.70;1.00
5492;DHT22;2768;53.540;10.224;2023-03-15T00:35:56;2.70;1.00
5492;DHT22;2768;53.540;10.224;2023-03-15T00:41:51;2.60;1.00
5492;DHT22;2768;53.540;10.224;2023-03-15T00:47:49;2.60;1.00
5492;DHT22;2768;53.540;10.224;2023-03-15T00:53:45;2.60;1.00
5492;DHT22;2768;53.540;10.224;2023-03-15T00:59:40;2.50;1.00
5492;DHT22;2768;53.540;10.224;2023-03-15T01:05:36;2.50;1.00
5492;DHT22;2768;53.540;10.224;2023-03-15T01:11:30;2.70;1.00
5492;DHT22;2768;53.540;10.224;2023-03-15T01:17:25;2.60;1.00
5492;DHT22;2768;53.540;10.224;2023-03-15T01:23:18;2.50;1.00
5492;DHT22;2768;53.540;10.224;2023-03-15T01:29:11;2.40;1.00
5492;DHT22;2768;53.540;10.224;2023-03-15T01:35:07;2.30;1.00
5492;DHT22;2768;53.540;10.224;2023-03-15T01:41:01;2.40;1.00
5492;DHT22;2768;53.540;10.224;2023-03-15T01:46:54;2.30;1.00
5492;DHT22;2768;53.540;10.224;2023-03-15T01:52:49;2.40;1.00
5492;DHT22;2768;53.540;10.224;2023-03-15T01:58:45;2.30;1.00
5492;DHT22;2768;53.540;10.224;2023-03-15T02:04:43;2.40;1.00
5492;DHT22;2768;53.540;10.224;2023-03-15T02:10:43;2.30;1.00
5492;DHT22;2768;53.540;10.224;2023-03-15T02:16:38;2.50;1.00
5492;DHT22;2768;53.540;10.224;2023-03-15T02:22:40;2.60;1.00
5492;DHT22;2768;53.540;10.224;2023-03-15T02:28:39;2.60;1.00
5492;DHT22;2768;53.540;10.224;2023-03-15T02:34:32;2.50;1.00
5492;DHT22;2768;53.540;10.224;2023-03-15T02:40:27;2.40;1.00
5492;DHT22;2768;53.540;10.224;2023-03-15T02:46:23;2.40;1.00
5492;DHT22;2768;53.540;10.224;2023-03-15T02:52:17;2.20;1.00
5492;DHT22;2768;53.540;10.224;2023-03-15T02:58:10;2.20;1.00
5492;DHT22;2768;53.540;10.224;2023-03-15T03:04:05;2.30;1.00
5492;DHT22;2768;53.540;10.224;2023-03-15T03:09:59;2.30;1.00
5492;DHT22;2768;53.540;10.224;2023-03-15T03:15:58;2.50;1.00
5492;DHT22;2768;53.540;10.224;2023-03-15T03:21:56;2.50;1.00
5492;DHT22;2768;53.540;10.224;2023-03-15T03:27:49;2.70;1.00
5492;DHT22;2768;53.540;10.224;2023-03-15T03:33:42;2.70;1.00
5492;DHT22;2768;53.540;10.224;2023-03-15T03:39:37;2.70;1.00
5492;DHT22;2768;53.540;10.224;2023-03-15T03:45:31;2.50;1.00
5492;DHT22;2768;53.540;10.224;2023-03-15T03:51:24;2.60;1.00
5492;DHT22;2768;53.540;10.224;2023-03-15T03:57:19;2.90;1.00
5492;DHT22;2768;53.540;10.224;2023-03-15T04:03:13;3.00;1.00
5492;DHT22;2768;53.540;10.224;2023-03-15T04:09:12;3.00;1.00
5492;DHT22;2768;53.540;10.224;2023-03-15T04:15:10;3.10;1.00
5492;DHT22;2768;53.540;10.224;2023-03-15T04:21:04;3.00;1.00
5492;DHT22;2768;53.540;10.224;2023-03-15T04:27:04;2.90;1.00
5492;DHT22;2768;53.540;10.224;2023-03-15T04:33:09;2.80;1.00
5492;DHT22;2768;53.540;10.224;2023-03-15T04:39:26;2.70;1.00
5492;DHT22;2768;53.540;10.224;2023-03-15T04:45:45;2.70;1.00
5492;DHT22;2768;53.540;10.224;2023-03-15T04:51:58;2.70;1.00
5492;DHT22;2768;53.540;10.224;2023-03-15T04:58:27;2.50;1.00
5492;DHT22;2768;53.540;10.224;2023-03-15T05:04:39;2.40;1.00
5492;DHT22;2768;53.540;10.224;2023-03-15T05:10:44;2.50;1.00
5492;DHT22;2768;53.540;10.224;2023-03-15T05:17:00;2.50;1.00
5492;DHT22;2768;53.540;10.224;2023-03-15T05:23:14;2.30;1.00
5492;DHT22;2768;53.540;10.224;2023-03-15T05:29:18;2.40;1.00
5492;DHT22;2768;53.540;10.224;2023-03-15T05:35:32;2.30;1.00
5492;DHT22;2768;53.540;10.224;2023-03-15T05:41:38;2.30;1.00
5492;DHT22;2768;53.540;10.224;2023-03-15T05:47:52;2.30;1.00
5492;DHT22;2768;53.540;10.224;2023-03-15T05:53:57;2.20;1.00
5492;DHT22;2768;53.540;10.224;2023-03-15T06:00:09;2.10;1.00
5492;DHT22;2768;53.540;10.224;2023-03-15T06:06:08;2.20;1.00
5492;DHT22;2768;53.540;10.224;2023-03-15T06:12:05;2.20;1.00
5492;DHT22;2768;53.540;10.224;2023-03-15T06:17:59;2.40;1.00
5492;DHT22;2768;53.540;10.224;2023-03-15T06:23:55;2.20;1.00
5492;DHT22;2768;53.540;10.224;2023-03-15T06:29:48;2.30;1.00
5492;DHT22;2768;53.540;10.224;2023-03-15T06:35:45;2.20;1.00
5492;DHT22;2768;53.540;10.224;2023-03-15T06:41:40;2.20;1.00
5492;DHT22;2768;53.540;10.224;2023-03-15T06:47:39;2.00;1.00
5492;DHT22;2768;53.540;10.224;2023-03-15T06:53:33;2.20;1.00
5492;DHT22;2768;53.540;10.224;2023-03-15T06:59:28;2.10;1.00
5492;DHT22;2768;53.540;10.224;2023-03-15T07:05:22;2.00;1.00
5492;DHT22;2768;53.540;10.224;2023-03-15T07:11:15;2.10;1.00
5492;DHT22;2768;53.540;10.224;2023-03-15T07:17:09;2.20;1.00
5492;DHT22;2768;53.540;10.224;2023-03-15T07:23:03;2.20;1.00
5492;DHT22;2768;53.540;10.224;2023-03-15T07:28:56;2.30;1.00
5492;DHT22;2768;53.540;10.224;2023-03-15T07:34:50;2.40;1.00
5492;DHT22;2768;53.540;10.224;2023-03-15T07:40:46;2.30;1.00
5492;DHT22;2768;53.540;10.224;2023-03-15T07:46:39;2.30;1.00
5492;DHT22;2768;53.540;10.224;2023-03-15T07:52:33;2.30;1.00
5492;DHT22;2768;53.540;10.224;2023-03-15T07:58:26;2.30;1.00
5492;DHT22;2768;53.540;10.224;2023-03-15T08:04:20;2.10;1.00
5492;DHT22;2768;53.540;10.224;2023-03-15T08:10:15;2.10;1.00
5492;DHT22;2768;53.540;10.224;2023-03-15T08:16:09;2.20;1.00
5492;DHT22;2768;53.540;10.224;2023-03-15T08:22:03;2.40;1.00
5492;DHT22;2768;53.540;10.224;2023-03-15T08:27:59;2.60;1.00
5492;DHT22;2768;53.540;10.224;2023-03-15T08:33:52;2.80;1.00
5492;DHT22;2768;53.540;10.224;2023-03-15T08:39:45;2.90;1.00
5492;DHT22;2768;53.540;10.224;2023-03-15T08:45:40;3.00;1.00
5492;DHT22;2768;53.540;10.224;2023-03-15T08:51:51;3.10;1.00
5492;DHT22;2768;53.540;10.224;2023-03-15T08:57:44;3.20;1.00
5492;DHT22;2768;53.540;10.224;2023-03-15T09:03:40;3.10;1.00
5492;DHT22;2768;53.540;10.224;2023-03-15T09:09:33;3.00;1.00
5492;DHT22;2768;53.540;10.224;2023-03-15T09:15:27;3.50;1.00
5492;DHT22;2768;53.540;10.224;2023-03-15T09:21:21;3.60;1.00
5492;DHT22;2768;53.540;10.224;2023-03-15T09:27:15;3.90;1.00
5492;DHT22;2768;53.540;10.224;2023-03-15T09:33:09;3.90;1.00
5492;DHT22;2768;53.540;10.224;2023-03-15T09:39:06;3.90;1.00
5492;DHT22;2768;53.540;10.224;2023-03-15T09:45:04;3.80;1.00
5492;DHT22;2768;53.540;10.224;2023-03-15T09:51:02;2.90;1.00
5492;DHT22;2768;53.540;10.224;2023-03-15T09:56:59;2.90;1.00
5492;DHT22;2768;53.540;10.224;2023-03-15T10:02:56;3.20;1.00
5492;DHT22;2768;53.540;10.224;2023-03-15T10:08:55;4.00;1.00
5492;DHT22;2768;53.540;10.224;2023-03-15T10:15:15;4.60;1.00
5492;DHT22;2768;53.540;10.224;2023-03-15T10:21:12;5.30;1.00
5492;DHT22;2768;53.540;10.224;2023-03-15T10:27:14;5.10;1.00
5492;DHT22;2768;53.540;10.224;2023-03-15T10:33:14;4.40;1.00
5492;DHT22;2768;53.540;10.224;2023-03-15T10:39:09;3.90;1.00
5492;DHT22;2768;53.540;10.224;2023-03-15T10:45:13;4.00;1.00
5492;DHT22;2768;53.540;10.224;2023-03-15T10:51:19;3.70;1.00
5492;DHT22;2768;53.540;10.224;2023-03-15T10:57:15;3.90;1.00
5492;DHT22;2768;53.540;10.224;2023-03-15T11:03:17;4.50;1.00
5492;DHT22;2768;53.540;10.224;2023-03-15T11:09:13;6.10;1.00
5492;DHT22;2768;53.540;10.224;2023-03-15T11:15:11;6.60;1.00
5492;DHT22;2768;53.540;10.224;2023-03-15T11:21:08;5.40;1.00
5492;DHT22;2768;53.540;10.224;2023-03-15T11:27:12;5.20;99.90
5492;DHT22;2768;53.540;10.224;2023-03-15T11:33:07;6.90;99.90
5492;DHT22;2768;53.540;10.224;2023-03-15T11:39:02;8.50;99.90
5492;DHT22;2768;53.540;10.224;2023-03-15T11:45:00;8.00;99.90
5492;DHT22;2768;53.540;10.224;2023-03-15T11:50:56;7.50;99.90
5492;DHT22;2768;53.540;10.224;2023-03-15T11:56:52;7.80;99.90
5492;DHT22;2768;53.540;10.224;2023-03-15T12:02:52;8.60;99.90
5492;DHT22;2768;53.540;10.224;2023-03-15T12:08:48;6.10;99.90
5492;DHT22;2768;53.540;10.224;2023-03-15T12:14:43;3.90;1.00
5492;DHT22;2768;53.540;10.224;2023-03-15T12:20:39;3.80;1.00
5492;DHT22;2768;53.540;10.224;2023-03-15T12:26:39;3.80;1.00
5492;DHT22;2768;53.540;10.224;2023-03-15T12:32:42;4.10;1.00
5492;DHT22;2768;53.540;10.224;2023-03-15T12:38:57;4.00;1.00
5492;DHT22;2768;53.540;10.224;2023-03-15T12:44:50;5.00;1.00
5492;DHT22;2768;53.540;10.224;2023-03-15T12:50:49;7.10;1.00
5492;DHT22;2768;53.540;10.224;2023-03-15T12:56:46;7.50;99.90
5492;DHT22;2768;53.540;10.224;2023-03-15T13:02:44;6.30;99.90
5492;DHT22;2768;53.540;10.224;2023-03-15T13:08:42;5.90;99.90
5492;DHT22;2768;53.540;10.224;2023-03-15T13:14:45;7.30;99.90
5492;DHT22;2768;53.540;10.224;2023-03-15T13:20:47;8.20;99.90
5492;DHT22;2768;53.540;10.224;2023-03-15T13:26:51;9.10;99.90
5492;DHT22;2768;53.540;10.224;2023-03-15T13:32:48;9.40;99.90
5492;DHT22;2768;53.540;10.224;2023-03-15T13:38:43;9.70;99.90
5492;DHT22;2768;53.540;10.224;2023-03-15T13:44:36;9.10;99.90
5492;DHT22;2768;53.540;10.224;2023-03-15T13:50:31;9.30;99.90
5492;DHT22;2768;53.540;10.224;2023-03-15T13:56:27;9.60;99.90
5492;DHT22;2768;53.540;10.224;2023-03-15T14:02:36;9.40;99.90
5492;DHT22;2768;53.540;10.224;2023-03-15T14:08:32;8.60;99.90
5492;DHT22;2768;53.540;10.224;2023-03-15T14:14:28;8.20;99.90
5492;DHT22;2768;53.540;10.224;2023-03-15T14:20:25;8.00;99.90
5492;DHT22;2768;53.540;10.224;2023-03-15T14:26:26;9.00;99.90
5492;DHT22;2768;53.540;10.224;2023-03-15T14:32:26;10.50;99.90
5492;DHT22;2768;53.540;10.224;2023-03-15T14:38:21;10.90;87.80
5492;DHT22;2768;53.540;10.224;2023-03-15T14:44:16;8.80;55.30
5492;DHT22;2768;53.540;10.224;2023-03-15T14:50:12;9.50;69.60
5492;DHT22;2768;53.540;10.224;2023-03-15T14:56:10;8.80;63.90
5492;DHT22;2768;53.540;10.224;2023-03-15T15:02:05;9.30;71.70
5492;DHT22;2768;53.540;10.224;2023-03-15T15:08:02;10.10;73.50
5492;DHT22;2768;53.540;10.224;2023-03-15T15:13:56;9.70;59.30
5492;DHT22;2768;53.540;10.224;2023-03-15T15:19:50;9.50;62.70
5492;DHT22;2768;53.540;10.224;2023-03-15T15:25:44;9.90;72.20
5492;DHT22;2768;53.540;10.224;2023-03-15T15:31:38;9.70;59.40
5492;DHT22;2768;53.540;10.224;2023-03-15T15:37:33;9.50;52.30
5492;DHT22;2768;53.540;10.224;2023-03-15T15:43:27;9.10;53.80
5492;DHT22;2768;53.540;10.224;2023-03-15T15:49:23;8.60;52.40
5492;DHT22;2768;53.540;10.224;2023-03-15T15:55:20;7.80;53.70
5492;DHT22;2768;53.540;10.224;2023-03-15T16:01:15;7.50;43.60
5492;DHT22;2768;53.540;10.224;2023-03-15T16:07:09;7.60;43.10
5492;DHT22;2768;53.540;10.224;2023-03-15T16:13:03;7.80;38.70
5492;DHT22;2768;53.540;10.224;2023-03-15T16:18:57;7.70;36.90
5492;DHT22;2768;53.540;10.224;2023-03-15T16:24:52;7.60;32.00
5492;DHT22;2768;53.540;10.224;2023-03-15T16:30:47;7.50;21.60
5492;DHT22;2768;53.540;10.224;2023-03-15T16:36:44;7.30;26.40
5492;DHT22;2768;53.540;10.224;2023-03-15T16:42:40;7.20;33.70
5492;DHT22;2768;53.540;10.224;2023-03-15T16:48:34;7.10;35.10
5492;DHT22;2768;53.540;10.224;2023-03-15T16:54:28;7.00;37.80
5492;DHT22;2768;53.540;10.224;2023-03-15T17:00:32;6.90;35.30
5492;DHT22;2768;53.540;10.224;2023-03-15T17:06:27;6.70;37.60
5492;DHT22;2768;53.540;10.224;2023-03-15T17:12:24;6.70;38.20
5492;DHT22;2768;53.540;10.224;2023-03-15T17:18:19;6.60;39.70
5492;DHT22;2768;53.540;10.224;2023-03-15T17:24:19;6.50;36.70
5492;DHT22;2768;53.540;10.224;2023-03-15T17:30:14;6.40;31.40
5492;DHT22;2768;53.540;10.224;2023-03-15T17:36:09;6.40;29.00
5492;DHT22;2768;53.540;10.224;2023-03-15T17:42:05;6.30;27.30
5492;DHT22;2768;53.540;10.224;2023-03-15T17:47:58;6.20;28.60
5492;DHT22;2768;53.540;10.224;2023-03-15T17:53:52;6.20;31.00
5492;DHT22;2768;53.540;10.224;2023-03-15T17:59:46;6.10;34.70
5492;DHT22;2768;53.540;10.224;2023-03-15T18:05:40;6.10;43.10
5492;DHT22;2768;53.540;10.224;2023-03-15T18:11:34;6.10;46.80
5492;DHT22;2768;53.540;10.224;2023-03-15T18:17:29;6.00;53.40
5492;DHT22;2768;53.540;10.224;2023-03-15T18:23:22;5.90;57.90
5492;DHT22;2768;53.540;10.224;2023-03-15T18:29:15;5.80;63.40
5492;DHT22;2768;53.540;10.224;2023-03-15T18:35:14;5.80;71.70
5492;DHT22;2768;53.540;10.224;2023-03-15T18:41:12;5.70;79.10
5492;DHT22;2768;53.540;10.224;2023-03-15T18:47:11;5.70;89.20
5492;DHT22;2768;53.540;10.224;2023-03-15T18:53:05;5.60;91.80
5492;DHT22;2768;53.540;10.224;2023-03-15T18:58:59;5.70;94.60
5492;DHT22;2768;53.540;10.224;2023-03-15T19:04:56;5.60;96.90
5492;DHT22;2768;53.540;10.224;2023-03-15T19:10:56;5.50;99.30
5492;DHT22;2768;53.540;10.224;2023-03-15T19:16:49;5.60;99.90
5492;DHT22;2768;53.540;10.224;2023-03-15T19:22:44;5.50;99.90
5492;DHT22;2768;53.540;10.224;2023-03-15T19:28:38;5.50;99.90
5492;DHT22;2768;53.540;10.224;2023-03-15T19:34:32;5.50;99.90
5492;DHT22;2768;53.540;10.224;2023-03-15T19:40:25;5.40;99.90
5492;DHT22;2768;53.540;10.224;2023-03-15T19:46:19;5.40;99.90
5492;DHT22;2768;53.540;10.224;2023-03-15T19:52:13;5.20;99.90
5492;DHT22;2768;53.540;10.224;2023-03-15T19:58:06;5.20;99.90
5492;DHT22;2768;53.540;10.224;2023-03-15T20:04:01;5.20;99.90
5492;DHT22;2768;53.540;10.224;2023-03-15T20:09:54;5.10;99.90
5492;DHT22;2768;53.540;10.224;2023-03-15T20:15:47;5.10;99.90
5492;DHT22;2768;53.540;10.224;2023-03-15T20:21:42;5.00;99.90
5492;DHT22;2768;53.540;10.224;2023-03-15T20:27:36;5.00;99.90
5492;DHT22;2768;53.540;10.224;2023-03-15T20:33:29;4.90;99.90
5492;DHT22;2768;53.540;10.224;2023-03-15T20:39:23;4.90;99.90
5492;DHT22;2768;53.540;10.224;2023-03-15T20:45:17;4.90;99.90
5492;DHT22;2768;53.540;10.224;2023-03-15T20:51:10;5.00;99.90
5492;DHT22;2768;53.540;10.224;2023-03-15T20:57:05;4.90;99.90
5492;DHT22;2768;53.540;10.224;2023-03-15T21:02:58;4.80;99.90
5492;DHT22;2768;53.540;10.224;2023-03-15T21:08:52;4.70;99.90
5492;DHT22;2768;53.540;10.224;2023-03-15T21:14:47;4.50;99.90
5492;DHT22;2768;53.540;10.224;2023-03-15T21:20:41;4.60;99.90
5492;DHT22;2768;53.540;10.224;2023-03-15T21:26:34;4.70;99.90
5492;DHT22;2768;53.540;10.224;2023-03-15T21:32:28;4.70;99.90
5492;DHT22;2768;53.540;10.224;2023-03-15T21:38:22;4.70;99.90
5492;DHT22;2768;53.540;10.224;2023-03-15T21:44:15;4.70;99.90
5492;DHT22;2768;53.540;10.224;2023-03-15T21:50:10;4.60;99.90
5492;DHT22;2768;53.540;10.224;2023-03-15T21:56:03;4.60;99.90
5492;DHT22;2768;53.540;10.224;2023-03-15T22:01:56;4.70;99.90
5492;DHT22;2768;53.540;10.224;2023-03-15T22:07:51;4.60;99.90
5492;DHT22;2768;53.540;10.224;2023-03-15T22:13:44;4.50;99.90
5492;DHT22;2768;53.540;10.224;2023-03-15T22:19:37;4.50;99.90
5492;DHT22;2768;53.540;10.224;2023-03-15T22:25:31;4.40;99.90
5492;DHT22;2768;53.540;10.224;2023-03-15T22:31:24;4.50;99.90
5492;DHT22;2768;53.540;10.224;2023-03-15T22:37:18;4.60;99.90
5492;DHT22;2768;53.540;10.224;2023-03-15T22:43:13;4.60;99.90
5492;DHT22;2768;53.540;10.224;2023-03-15T22:49:06;4.50;99.90
5492;DHT22;2768;53.540;10.224;2023-03-15T22:55:00;4.50;99.90
5492;DHT22;2768;53.540;10.224;2023-03-15T23:00:54;4.40;99.90
5492;DHT22;2768;53.540;10.224;2023-03-15T23:06:48;4.30;99.90
5492;DHT22;2768;53.540;10.224;2023-03-15T23:12:42;4.40;99.90
5492;DHT22;2768;53.540;10.224;2023-03-15T23:18:36;4.20;99.90
5492;DHT22;2768;53.540;10.224;2023-03-15T23:24:30;4.20;99.90
5492;DHT22;2768;53.540;10.224;2023-03-15T23:30:25;4.20;99.90
5492;DHT22;2768;53.540;10.224;2023-03-15T23:36:27;4.20;99.90
5492;DHT22;2768;53.540;10.224;2023-03-15T23:42:21;4.20;99.90
5492;DHT22;2768;53.540;10.224;2023-03-15T23:48:16;4.00;99.90
5492;DHT22;2768;53.540;10.224;2023-03-15T23:54:11;4.00;99.90
